createdAt,value
2023-03-16T00:00:28.555Z,101083.09
2023-03-16T00:02:56.965Z,101084.31
2023-03-16T00:05:26.181Z,101086.44
2023-03-16T00:07:54.635Z,101086.88
2023-03-16T00:10:27.680Z,101093.84
2023-03-16T00:12:58.732Z,101091.88
2023-03-16T00:15:26.834Z,101087.81
2023-03-16T00:17:54.952Z,101082.53
2023-03-16T00:20:24.494Z,101077.84
2023-03-16T00:22:57.270Z,101087.06
2023-03-16T00:25:25.772Z,101086.44
2023-03-16T00:27:55.430Z,101086.16
2023-03-16T00:30:27.748Z,101088.56
2023-03-16T00:32:56.384Z,101076.19
2023-03-16T00:35:24.628Z,101073.78
2023-03-16T00:37:52.769Z,101073.66
2023-03-16T00:40:21.269Z,101071.09
2023-03-16T00:42:49.526Z,101073.97
2023-03-16T00:45:17.847Z,101069.47
2023-03-16T00:47:47.504Z,101072.63
2023-03-16T00:50:15.771Z,101063.72
2023-03-16T00:52:43.940Z,101067.19
2023-03-16T00:55:12.988Z,101067.63
2023-03-16T00:57:41.461Z,101064.91
2023-03-16T01:00:12.969Z,101066.59
2023-03-16T01:02:41.593Z,101060.41
2023-03-16T01:05:14.165Z,101066.59
2023-03-16T01:07:43.029Z,101055.41
2023-03-16T01:10:12.518Z,101063.00
2023-03-16T01:12:41.267Z,101061.47
2023-03-16T01:15:11.527Z,101063.63
2023-03-16T01:17:40.081Z,101044.88
2023-03-16T01:20:11.924Z,101052.72
2023-03-16T01:22:42.297Z,101051.50
2023-03-16T01:25:12.931Z,101055.44
2023-03-16T01:27:43.440Z,101059.97
2023-03-16T01:30:13.680Z,101057.06
2023-03-16T01:32:43.546Z,101061.47
2023-03-16T01:35:14.742Z,101052.72
2023-03-16T01:37:44.286Z,101049.22
2023-03-16T01:40:19.943Z,101056.66
2023-03-16T01:42:50.932Z,101054.09
2023-03-16T01:46:18.384Z,101053.03
2023-03-16T01:48:59.771Z,101040.38
2023-03-16T01:51:35.106Z,101040.06
2023-03-16T01:54:08.797Z,101038.53
2023-03-16T01:56:42.035Z,101028.28
2023-03-16T01:59:15.603Z,101032.78
2023-03-16T02:01:44.555Z,101017.41
2023-03-16T02:04:23.067Z,101022.84
2023-03-16T02:06:56.499Z,101022.09
2023-03-16T02:09:27.146Z,101035.25
2023-03-16T02:11:56.743Z,101029.03
2023-03-16T02:14:26.308Z,101025.84
2023-03-16T02:16:55.919Z,101015.59
2023-03-16T02:19:36.134Z,101022.41
2023-03-16T02:22:07.650Z,101024.06
2023-03-16T02:24:38.278Z,101019.84
2023-03-16T02:27:10.622Z,101019.84
2023-03-16T02:29:54.314Z,101021.22
2023-03-16T02:32:25.519Z,101010.47
2023-03-16T02:34:54.306Z,101021.78
2023-03-16T02:37:22.745Z,101018.59
2023-03-16T02:39:51.001Z,101012.50
2023-03-16T02:42:26.829Z,100995.84
2023-03-16T02:45:01.580Z,100994.06
2023-03-16T02:47:44.429Z,100992.81
2023-03-16T02:50:14.848Z,100994.34
2023-03-16T02:52:44.377Z,100992.56
2023-03-16T02:55:13.407Z,100989.53
2023-03-16T02:57:41.793Z,100979.72
2023-03-16T03:00:19.239Z,100970.69
2023-03-16T03:02:52.715Z,100979.19
2023-03-16T03:05:21.561Z,100978.41
2023-03-16T03:07:49.706Z,100974.19
2023-03-16T03:10:19.788Z,100962.88
2023-03-16T03:12:49.858Z,100955.59
2023-03-16T03:15:21.574Z,100965.28
2023-03-16T03:18:02.607Z,100960.72
2023-03-16T03:20:32.587Z,100964.03
2023-03-16T03:23:00.840Z,100960.88
2023-03-16T03:25:29.288Z,100963.84
2023-03-16T03:27:58.810Z,100963.28
2023-03-16T03:30:30.041Z,100973.69
2023-03-16T03:32:59.807Z,100964.53
2023-03-16T03:35:28.712Z,100956.06
2023-03-16T03:37:57.193Z,100962.25
2023-03-16T03:40:26.758Z,100956.50
2023-03-16T03:43:02.448Z,100963.00
2023-03-16T03:45:34.010Z,100947.78
2023-03-16T03:48:03.217Z,100963.34
2023-03-16T03:50:31.418Z,100957.91
2023-03-16T03:53:15.415Z,100959.56
2023-03-16T03:56:03.832Z,100955.94
2023-03-16T03:58:32.860Z,100953.06
2023-03-16T04:01:05.863Z,100953.56
2023-03-16T04:03:35.634Z,100949.63
2023-03-16T04:06:04.149Z,100952.53
2023-03-16T04:08:33.169Z,100954.34
2023-03-16T04:11:02.111Z,100958.16
2023-03-16T04:13:31.443Z,100956.91
2023-03-16T04:16:02.571Z,100963.72
2023-03-16T04:18:38.800Z,100964.88
2023-03-16T04:21:12.569Z,100980.78
2023-03-16T04:23:42.540Z,100967.66
2023-03-16T04:26:11.240Z,100964.00
2023-03-16T04:28:41.048Z,100964.75
2023-03-16T04:31:11.739Z,100966.41
2023-03-16T04:33:47.915Z,100959.13
2023-03-16T04:36:17.483Z,100962.47
2023-03-16T04:38:46.629Z,100959.44
2023-03-16T04:41:15.072Z,100959.75
2023-03-16T04:44:02.376Z,100948.56
2023-03-16T04:46:33.673Z,100951.59
2023-03-16T04:49:09.874Z,100949.34
2023-03-16T04:51:40.805Z,100952.66
2023-03-16T04:54:11.682Z,100952.06
2023-03-16T04:56:43.768Z,100948.75
2023-03-16T04:59:26.114Z,100951.63
2023-03-16T05:02:04.055Z,100948.28
2023-03-16T05:04:34.505Z,100938.47
2023-03-16T05:07:04.389Z,100948.88
2023-03-16T05:09:37.806Z,100938.63
2023-03-16T05:12:06.495Z,100932.59
2023-03-16T05:14:36.123Z,100940.00
2023-03-16T05:17:23.954Z,100950.41
2023-03-16T05:19:53.648Z,100949.06
2023-03-16T05:22:22.727Z,100953.13
2023-03-16T05:25:14.908Z,100958.09
2023-03-16T05:27:49.590Z,100969.38
2023-03-16T05:30:25.122Z,100966.53
2023-03-16T05:32:58.783Z,100964.25
2023-03-16T05:35:32.747Z,100947.94
2023-03-16T05:38:05.884Z,100941.88
2023-03-16T05:40:37.603Z,100934.94
2023-03-16T05:43:26.381Z,100921.50
2023-03-16T05:46:00.725Z,100924.81
2023-03-16T05:48:29.016Z,100928.88
2023-03-16T05:51:05.907Z,100930.22
2023-03-16T05:53:35.795Z,100927.63
2023-03-16T05:56:15.569Z,100929.53
2023-03-16T05:58:47.629Z,100919.09
2023-03-16T06:01:17.780Z,100916.59
2023-03-16T06:03:53.070Z,100908.41
2023-03-16T06:06:34.527Z,100912.56
2023-03-16T06:09:15.855Z,100914.75
2023-03-16T06:11:44.721Z,100905.78
2023-03-16T06:14:20.385Z,100907.22
2023-03-16T06:16:51.416Z,100903.53
2023-03-16T06:19:25.702Z,100913.16
2023-03-16T06:22:03.312Z,100913.56
2023-03-16T06:24:49.041Z,100903.78
2023-03-16T06:27:20.282Z,100912.63
2023-03-16T06:30:19.461Z,100916.22
2023-03-16T06:33:00.426Z,100921.78
2023-03-16T06:35:38.456Z,100922.97
2023-03-16T06:38:15.909Z,100912.78
2023-03-16T06:40:56.816Z,100917.47
2023-03-16T06:43:34.757Z,100919.09
2023-03-16T06:46:06.265Z,100914.88
2023-03-16T06:48:35.856Z,100926.13
2023-03-16T06:51:08.289Z,100919.41
2023-03-16T06:53:39.506Z,100914.81
2023-03-16T06:56:11.352Z,100921.31
2023-03-16T06:58:43.070Z,100918.59
2023-03-16T07:01:12.629Z,100911.50
2023-03-16T07:03:42.353Z,100907.38
2023-03-16T07:06:37.115Z,100907.03
2023-03-16T07:09:08.226Z,100910.34
2023-03-16T07:11:38.665Z,100908.34
2023-03-16T07:14:06.898Z,100910.81
2023-03-16T07:16:36.529Z,100908.34
2023-03-16T07:19:07.793Z,100910.06
2023-03-16T07:21:40.156Z,100909.81
2023-03-16T07:24:16.234Z,100910.75
2023-03-16T07:26:44.667Z,100912.69
2023-03-16T07:29:17.274Z,100908.56
2023-03-16T07:31:46.595Z,100919.78
2023-03-16T07:34:20.322Z,100919.50
2023-03-16T07:36:54.620Z,100917.16
2023-03-16T07:39:27.475Z,100928.41
2023-03-16T07:42:02.563Z,100920.19
2023-03-16T07:44:41.832Z,100928.63
2023-03-16T07:47:13.161Z,100927.91
2023-03-16T07:49:44.162Z,100927.06
2023-03-16T07:52:16.104Z,100921.38
2023-03-16T07:54:48.809Z,100914.06
2023-03-16T07:57:17.158Z,100913.25
2023-03-16T07:59:46.735Z,100908.72
2023-03-16T08:02:20.339Z,100915.22
2023-03-16T08:04:49.331Z,100911.69
2023-03-16T08:07:19.091Z,100906.38
2023-03-16T08:10:01.270Z,100907.94
2023-03-16T08:12:35.991Z,100911.03
2023-03-16T08:15:06.304Z,100900.34
2023-03-16T08:17:35.488Z,100901.53
2023-03-16T08:20:10.607Z,100902.19
2023-03-16T08:22:39.151Z,100895.88
2023-03-16T08:25:11.509Z,100897.13
2023-03-16T08:27:45.956Z,100896.31
2023-03-16T08:30:17.028Z,100897.47
2023-03-16T08:32:53.097Z,100908.06
2023-03-16T08:35:25.336Z,100910.69
2023-03-16T08:37:54.795Z,100911.25
2023-03-16T08:40:25.114Z,100911.28
2023-03-16T08:42:55.774Z,100900.34
2023-03-16T08:45:24.514Z,100897.13
2023-03-16T08:47:53.728Z,100889.75
2023-03-16T08:50:22.490Z,100893.72
2023-03-16T08:52:51.162Z,100888.66
2023-03-16T08:55:19.330Z,100885.97
2023-03-16T08:58:20.670Z,100892.47
2023-03-16T09:00:50.766Z,100893.22
2023-03-16T09:07:28.231Z,100879.75
2023-03-16T09:13:11.595Z,100878.19
2023-03-16T09:15:40.868Z,100881.00
2023-03-16T09:18:09.021Z,100876.16
2023-03-16T09:20:37.712Z,100877.06
2023-03-16T09:23:06.172Z,100885.72
2023-03-16T09:25:34.746Z,100888.81
2023-03-16T09:28:02.971Z,100883.81
2023-03-16T09:33:20.671Z,100880.41
2023-03-16T09:35:50.847Z,100879.75
2023-03-16T09:38:21.626Z,100879.94
2023-03-16T09:40:56.841Z,100878.56
2023-03-16T09:43:53.268Z,100875.81
2023-03-16T09:46:29.000Z,100875.78
2023-03-16T09:48:58.978Z,100867.75
2023-03-16T09:51:38.579Z,100872.72
2023-03-16T09:54:19.257Z,100866.59
2023-03-16T09:56:51.166Z,100866.19
2023-03-16T09:59:23.372Z,100861.00
2023-03-16T10:02:04.392Z,100857.47
2023-03-16T10:04:50.554Z,100857.97
2023-03-16T10:07:33.640Z,100854.22
2023-03-16T10:10:16.819Z,100860.28
2023-03-16T10:12:52.570Z,100850.28
2023-03-16T10:15:28.203Z,100846.78
2023-03-16T10:18:02.097Z,100835.94
2023-03-16T10:20:34.864Z,100834.28
2023-03-16T10:23:17.814Z,100843.53
2023-03-16T10:26:12.979Z,100846.97
2023-03-16T10:28:43.375Z,100844.16
2023-03-16T10:31:14.028Z,100842.09
2023-03-16T10:33:44.790Z,100842.72
2023-03-16T10:36:19.592Z,100838.63
2023-03-16T10:38:51.642Z,100838.88
2023-03-16T10:41:47.047Z,100829.56
2023-03-16T10:44:17.769Z,100836.31
2023-03-16T10:46:49.265Z,100836.78
2023-03-16T10:49:27.501Z,100833.50
2023-03-16T10:51:57.962Z,100833.31
2023-03-16T10:54:32.243Z,100828.84
2023-03-16T10:57:03.122Z,100833.22
2023-03-16T10:59:34.482Z,100831.44
2023-03-16T11:02:07.668Z,100833.78
2023-03-16T11:04:39.371Z,100829.91
2023-03-16T11:07:09.199Z,100824.91
2023-03-16T11:09:38.419Z,100822.88
2023-03-16T11:12:17.180Z,100811.00
2023-03-16T11:14:47.521Z,100815.25
2023-03-16T11:17:20.277Z,100814.16
2023-03-16T11:19:59.606Z,100806.00
2023-03-16T11:22:30.291Z,100794.84
2023-03-16T11:25:06.683Z,100799.66
2023-03-16T11:27:40.614Z,100793.19
2023-03-16T11:30:18.952Z,100789.06
2023-03-16T11:32:54.865Z,100790.88
2023-03-16T11:35:35.283Z,100795.34
2023-03-16T11:38:15.637Z,100789.53
2023-03-16T11:40:56.128Z,100782.97
2023-03-16T11:43:48.674Z,100787.16
2023-03-16T11:46:23.425Z,100783.06
2023-03-16T11:49:15.650Z,100787.00
2023-03-16T11:51:51.656Z,100777.22
2023-03-16T11:54:51.305Z,100776.16
2023-03-16T11:57:34.721Z,100767.91
2023-03-16T12:00:40.800Z,100764.81
2023-03-16T12:04:03.061Z,100756.94
2023-03-16T12:06:48.350Z,100755.28
2023-03-16T12:09:47.083Z,100746.50
2023-03-16T12:12:29.568Z,100747.34
2023-03-16T12:15:29.741Z,100740.19
2023-03-16T12:18:06.238Z,100738.44
2023-03-16T12:20:42.175Z,100736.34
2023-03-16T12:23:14.833Z,100722.91
2023-03-16T12:25:49.124Z,100731.16
2023-03-16T12:28:25.021Z,100728.91
2023-03-16T12:34:05.018Z,100735.59
2023-03-16T12:36:58.948Z,100727.56
2023-03-16T12:39:42.052Z,100718.47
2023-03-16T12:42:35.855Z,100713.47
2023-03-16T12:45:12.437Z,100720.88
2023-03-16T12:47:52.236Z,100703.13
2023-03-16T12:50:22.439Z,100715.91
2023-03-16T12:52:54.171Z,100710.06
2023-03-16T12:55:28.394Z,100708.75
2023-03-16T12:58:06.527Z,100700.22
2023-03-16T13:00:37.674Z,100694.22
2023-03-16T13:03:12.945Z,100684.03
2023-03-16T13:05:47.684Z,100686.44
2023-03-16T13:08:19.273Z,100676.59
2023-03-16T13:11:03.529Z,100674.97
2023-03-16T13:13:38.669Z,100667.25
2023-03-16T13:16:11.054Z,100669.31
2023-03-16T13:18:45.069Z,100667.59
2023-03-16T13:21:20.566Z,100669.66
2023-03-16T13:23:55.828Z,100666.13
2023-03-16T13:26:35.400Z,100664.06
2023-03-16T13:29:25.837Z,100663.13
2023-03-16T13:31:56.370Z,100662.34
2023-03-16T13:34:29.704Z,100655.88
2023-03-16T13:37:00.062Z,100656.38
2023-03-16T13:39:34.430Z,100643.47
2023-03-16T13:42:17.899Z,100644.34
2023-03-16T13:45:01.841Z,100634.94
2023-03-16T13:47:30.218Z,100632.72
2023-03-16T13:50:12.508Z,100635.41
2023-03-16T13:52:43.245Z,100614.50
2023-03-16T13:55:17.510Z,100615.53
2023-03-16T13:57:49.575Z,100615.03
2023-03-16T14:00:32.384Z,100619.69
2023-03-16T14:03:10.069Z,100605.34
2023-03-16T14:06:05.956Z,100603.47
2023-03-16T14:08:51.455Z,100603.97
2023-03-16T14:11:20.952Z,100602.53
2023-03-16T14:13:55.126Z,100598.66
2023-03-16T14:16:26.586Z,100602.38
2023-03-16T14:19:02.566Z,100604.69
2023-03-16T14:21:35.468Z,100612.28
2023-03-16T14:24:05.716Z,100601.19
2023-03-16T14:26:42.742Z,100597.53
2023-03-16T14:29:20.803Z,100597.63
2023-03-16T14:31:51.541Z,100592.97
2023-03-16T14:34:30.281Z,100589.50
2023-03-16T14:37:47.533Z,100590.25
2023-03-16T14:40:41.566Z,100579.63
2023-03-16T14:43:15.820Z,100573.47
2023-03-16T14:46:48.367Z,100573.28
2023-03-16T14:53:16.728Z,100553.72
2023-03-16T14:59:35.428Z,100562.41
2023-03-16T15:02:15.841Z,100556.50
2023-03-16T15:05:17.480Z,100561.13
2023-03-16T15:07:46.429Z,100549.63
2023-03-16T15:10:23.364Z,100548.41
2023-03-16T15:12:54.268Z,100553.47
2023-03-16T15:16:06.999Z,100552.00
2023-03-16T15:22:28.416Z,100544.53
2023-03-16T15:24:58.001Z,100550.44
2023-03-16T15:27:35.090Z,100543.19
2023-03-16T15:30:03.890Z,100532.28
2023-03-16T15:32:48.311Z,100526.00
2023-03-16T15:35:24.797Z,100530.31
2023-03-16T15:38:08.192Z,100538.88
2023-03-16T15:40:38.810Z,100540.91
2023-03-16T15:43:13.682Z,100547.31
2023-03-16T15:45:43.251Z,100533.06
2023-03-16T15:48:15.569Z,100529.13
2023-03-16T15:50:48.282Z,100528.13
2023-03-16T15:53:34.095Z,100523.09
2023-03-16T15:56:32.249Z,100515.69
2023-03-16T15:59:43.702Z,100505.88
2023-03-16T16:06:32.145Z,100495.63
2023-03-16T16:09:07.365Z,100501.56
2023-03-16T16:11:36.576Z,100502.25
2023-03-16T16:14:21.522Z,100492.88
2023-03-16T16:16:59.894Z,100482.78
2023-03-16T16:19:36.305Z,100477.81
2023-03-16T16:22:11.141Z,100480.63
2023-03-16T16:24:49.325Z,100479.94
2023-03-16T16:27:17.719Z,100476.56
2023-03-16T16:29:46.981Z,100491.56
2023-03-16T16:32:25.167Z,100489.22
2023-03-16T16:35:03.893Z,100487.19
2023-03-16T16:37:35.553Z,100496.09
2023-03-16T16:40:05.375Z,100488.53
2023-03-16T16:43:41.122Z,100483.00
2023-03-16T16:46:44.129Z,100483.19
2023-03-16T16:49:40.245Z,100475.22
2023-03-16T16:52:15.631Z,100471.13
2023-03-16T16:54:44.625Z,100469.50
2023-03-16T16:57:18.375Z,100463.75
2023-03-16T17:00:50.036Z,100471.91
2023-03-16T17:03:25.078Z,100474.13
2023-03-16T17:05:56.085Z,100470.22
2023-03-16T17:08:25.109Z,100480.75
2023-03-16T17:10:54.380Z,100481.84
2023-03-16T17:13:28.041Z,100482.94
2023-03-16T17:15:57.858Z,100482.94
2023-03-16T17:18:27.870Z,100478.66
2023-03-16T17:22:04.987Z,100476.63
2023-03-16T17:29:57.164Z,100471.75
2023-03-16T17:33:36.144Z,100458.31
2023-03-16T17:36:06.894Z,100461.06
2023-03-16T17:38:37.315Z,100452.38
2023-03-16T17:41:06.230Z,100456.72
2023-03-16T17:43:38.350Z,100458.91
2023-03-16T17:46:07.450Z,100448.50
2023-03-16T17:48:35.712Z,100450.66
2023-03-16T17:51:08.025Z,100453.78
2023-03-16T17:53:38.493Z,100449.03
2023-03-16T17:56:22.680Z,100440.38
2023-03-16T17:58:53.198Z,100444.59
2023-03-16T18:01:25.087Z,100439.03
2023-03-16T18:03:55.291Z,100432.88
2023-03-16T18:06:26.238Z,100431.59
2023-03-16T18:08:57.293Z,100427.06
2023-03-16T18:11:32.658Z,100428.75
2023-03-16T18:14:02.041Z,100428.00
2023-03-16T18:16:31.614Z,100425.03
2023-03-16T18:19:00.741Z,100423.16
2023-03-16T18:21:29.734Z,100421.97
2023-03-16T18:23:59.630Z,100413.38
2023-03-16T18:26:30.603Z,100417.50
2023-03-16T18:28:59.318Z,100416.63
2023-03-16T18:31:30.462Z,100409.06
2023-03-16T18:34:02.469Z,100402.81
2023-03-16T18:36:34.012Z,100405.91
2023-03-16T18:39:07.207Z,100392.75
2023-03-16T18:41:36.346Z,100395.88
2023-03-16T18:44:17.905Z,100393.88
2023-03-16T18:46:47.104Z,100402.88
2023-03-16T18:49:20.016Z,100398.75
2023-03-16T18:51:51.327Z,100395.66
2023-03-16T18:54:24.424Z,100385.34
2023-03-16T18:56:58.665Z,100391.75
2023-03-16T18:59:28.207Z,100387.22
2023-03-16T19:01:58.026Z,100384.34
2023-03-16T19:04:27.100Z,100388.88
2023-03-16T19:06:56.653Z,100389.38
2023-03-16T19:09:28.614Z,100393.56
2023-03-16T19:11:57.302Z,100388.69
2023-03-16T19:14:28.531Z,100384.16
2023-03-16T19:16:57.289Z,100391.84
2023-03-16T19:19:27.360Z,100392.91
2023-03-16T19:21:59.064Z,100385.19
2023-03-16T19:24:35.301Z,100386.81
2023-03-16T19:27:03.712Z,100389.50
2023-03-16T19:29:35.275Z,100382.34
2023-03-16T19:32:03.588Z,100381.28
2023-03-16T19:34:32.413Z,100385.81
2023-03-16T19:37:01.085Z,100381.34
2023-03-16T19:39:30.618Z,100381.75
2023-03-16T19:42:00.615Z,100383.19
2023-03-16T19:44:29.651Z,100380.06
2023-03-16T19:47:00.127Z,100375.41
2023-03-16T19:49:29.261Z,100368.88
2023-03-16T19:51:58.318Z,100366.59
2023-03-16T19:54:28.337Z,100378.13
2023-03-16T19:57:01.363Z,100375.81
2023-03-16T19:59:33.076Z,100379.72
2023-03-16T20:02:03.633Z,100384.47
2023-03-16T20:04:32.182Z,100375.16
2023-03-16T20:07:04.252Z,100375.84
2023-03-16T20:09:36.385Z,100371.06
2023-03-16T20:12:06.557Z,100367.56
2023-03-16T20:14:35.295Z,100361.16
2023-03-16T20:17:04.691Z,100351.13
2023-03-16T20:19:33.649Z,100356.22
2023-03-16T20:22:13.382Z,100358.16
2023-03-16T20:24:44.213Z,100353.63
2023-03-16T20:27:14.267Z,100346.31
2023-03-16T20:29:43.261Z,100342.56
2023-03-16T20:32:21.781Z,100344.44
2023-03-16T20:34:53.577Z,100350.16
2023-03-16T20:37:46.988Z,100344.09
2023-03-16T20:40:16.566Z,100355.38
2023-03-16T20:42:48.530Z,100348.31
2023-03-16T20:45:19.080Z,100344.00
2023-03-16T20:47:47.947Z,100346.75
2023-03-16T20:50:22.720Z,100353.91
2023-03-16T20:52:51.703Z,100344.00
2023-03-16T20:55:22.959Z,100340.94
2023-03-16T20:57:55.576Z,100331.78
2023-03-16T21:00:31.506Z,100342.38
2023-03-16T21:03:01.465Z,100337.66
2023-03-16T21:05:30.884Z,100332.66
2023-03-16T21:07:59.265Z,100334.03
2023-03-16T21:10:28.312Z,100336.94
2023-03-16T21:12:59.672Z,100346.25
2023-03-16T21:15:31.790Z,100342.38
2023-03-16T21:18:02.349Z,100340.53
2023-03-16T21:20:33.495Z,100342.31
2023-03-16T21:23:03.005Z,100334.47
2023-03-16T21:25:35.237Z,100334.09
2023-03-16T21:28:06.468Z,100327.72
2023-03-16T21:30:38.709Z,100330.13
2023-03-16T21:33:17.866Z,100335.13
2023-03-16T21:35:46.336Z,100337.38
2023-03-16T21:38:17.140Z,100336.22
2023-03-16T21:40:45.844Z,100329.63
2023-03-16T21:43:16.321Z,100330.69
2023-03-16T21:45:46.073Z,100331.56
2023-03-16T21:48:16.716Z,100338.06
2023-03-16T21:50:45.869Z,100329.03
2023-03-16T21:53:22.046Z,100335.53
2023-03-16T21:55:51.783Z,100329.69
2023-03-16T21:58:22.281Z,100327.13
2023-03-16T22:00:52.688Z,100324.81
2023-03-16T22:03:32.994Z,100325.41
2023-03-16T22:06:12.581Z,100315.88
2023-03-16T22:08:43.059Z,100324.47
2023-03-16T22:11:17.329Z,100312.41
2023-03-16T22:13:47.389Z,100326.94
2023-03-16T22:16:19.221Z,100316.66
2023-03-16T22:18:49.829Z,100323.03
2023-03-16T22:21:28.970Z,100318.06
2023-03-16T22:23:59.813Z,100308.00
2023-03-16T22:26:29.078Z,100302.38
2023-03-16T22:29:19.789Z,100295.72
2023-03-16T22:31:49.470Z,100289.03
2023-03-16T22:34:28.891Z,100297.72
2023-03-16T22:36:58.700Z,100280.97
2023-03-16T22:39:29.317Z,100286.81
2023-03-16T22:41:58.339Z,100282.34
2023-03-16T22:44:29.002Z,100279.41
2023-03-16T22:46:58.326Z,100284.38
2023-03-16T22:49:28.711Z,100292.41
2023-03-16T22:51:58.558Z,100302.38
2023-03-16T22:54:28.028Z,100291.22
2023-03-16T22:56:57.163Z,100278.50
2023-03-16T22:59:29.591Z,100285.47
2023-03-16T23:01:59.631Z,100275.19
2023-03-16T23:04:32.294Z,100274.91
2023-03-16T23:07:00.845Z,100267.00
2023-03-16T23:09:29.786Z,100259.88
2023-03-16T23:11:59.490Z,100264.16
2023-03-16T23:14:33.050Z,100258.88
2023-03-16T23:17:01.838Z,100262.31
2023-03-16T23:19:34.074Z,100257.84
2023-03-16T23:22:05.192Z,100254.69
2023-03-16T23:24:34.077Z,100258.84
2023-03-16T23:27:03.251Z,100256.94
2023-03-16T23:29:32.906Z,100256.84
2023-03-16T23:32:01.171Z,100264.22
2023-03-16T23:34:29.440Z,100258.09
2023-03-16T23:36:58.852Z,100251.00
2023-03-16T23:39:31.239Z,100249.84
2023-03-16T23:42:00.118Z,100256.84
2023-03-16T23:44:30.507Z,100255.34
2023-03-16T23:47:00.913Z,100259.13
2023-03-16T23:49:32.553Z,100256.66
2023-03-16T23:52:02.473Z,100256.13
2023-03-16T23:54:33.328Z,100251.13
2023-03-16T23:57:02.405Z,100249.59
2023-03-16T23:59:31.673Z,100256.94
